createdAt,value
2022-09-01T00:02:55.912Z,15.38
2022-09-01T00:05:58.622Z,15.45
2022-09-01T00:09:04.440Z,15.35
2022-09-01T00:12:09.508Z,15.29
2022-09-01T00:15:14.038Z,15.20
2022-09-01T00:18:16.681Z,15.04
2022-09-01T00:21:21.687Z,15.18
2022-09-01T00:24:25.992Z,15.14
2022-09-01T00:27:30.631Z,15.25
2022-09-01T00:30:35.102Z,15.13
2022-09-01T00:33:38.743Z,15.10
2022-09-01T00:36:41.404Z,15.07
2022-09-01T00:39:44.009Z,14.98
2022-09-01T00:42:48.895Z,14.93
2022-09-01T00:45:52.869Z,14.80
2022-09-01T00:49:01.967Z,14.91
2022-09-01T00:52:09.133Z,14.72
2022-09-01T00:55:15.913Z,14.69
2022-09-01T00:58:19.612Z,14.83
2022-09-01T01:01:24.267Z,14.68
2022-09-01T01:04:26.953Z,14.87
2022-09-01T01:07:29.941Z,14.83
2022-09-01T01:10:35.830Z,14.86
2022-09-01T01:13:51.035Z,14.79
2022-09-01T01:16:55.276Z,14.85
2022-09-01T01:20:17.075Z,14.66
2022-09-01T01:23:28.257Z,14.65
2022-09-01T01:26:32.229Z,14.72
2022-09-01T01:29:37.118Z,14.71
2022-09-01T01:32:43.060Z,14.73
2022-09-01T01:35:47.032Z,14.76
2022-09-01T01:38:50.528Z,14.69
2022-09-01T01:41:58.704Z,14.74
2022-09-01T01:45:01.276Z,14.63
2022-09-01T01:48:08.535Z,14.69
2022-09-01T01:51:13.865Z,14.68
2022-09-01T01:54:19.903Z,14.65
2022-09-01T01:57:23.860Z,14.64
2022-09-01T02:00:30.971Z,14.74
2022-09-01T02:03:38.520Z,14.65
2022-09-01T02:06:44.954Z,14.60
2022-09-01T02:09:48.212Z,14.59
2022-09-01T02:12:52.445Z,14.60
2022-09-01T02:15:56.938Z,14.60
2022-09-01T02:19:01.193Z,14.67
2022-09-01T02:22:03.815Z,14.65
2022-09-01T02:25:07.027Z,14.64
2022-09-01T02:28:15.880Z,14.55
2022-09-01T02:31:20.936Z,14.51
2022-09-01T02:34:25.849Z,14.51
2022-09-01T02:37:29.725Z,14.52
2022-09-01T02:40:33.387Z,14.44
2022-09-01T02:43:38.618Z,14.49
2022-09-01T02:46:42.977Z,14.44
2022-09-01T02:49:46.710Z,14.51
2022-09-01T02:52:49.944Z,14.52
2022-09-01T02:55:52.949Z,14.53
2022-09-01T02:58:56.845Z,14.55
2022-09-01T03:01:59.578Z,14.54
2022-09-01T03:05:02.221Z,14.55
2022-09-01T03:08:10.374Z,14.59
2022-09-01T03:11:13.515Z,14.55
2022-09-01T03:14:17.996Z,14.40
2022-09-01T03:17:21.597Z,14.49
2022-09-01T03:20:24.393Z,14.32
2022-09-01T03:23:28.061Z,14.41
2022-09-01T03:26:31.842Z,14.52
2022-09-01T03:29:36.964Z,14.49
2022-09-01T03:32:39.799Z,14.38
2022-09-01T03:35:42.588Z,14.34
2022-09-01T03:38:46.906Z,14.36
2022-09-01T03:41:49.730Z,14.39
2022-09-01T03:44:53.630Z,14.40
2022-09-01T03:47:57.153Z,14.34
2022-09-01T03:51:02.727Z,14.35
2022-09-01T03:54:05.747Z,14.32
2022-09-01T03:57:10.031Z,14.34
2022-09-01T04:00:20.632Z,14.45
2022-09-01T04:03:29.119Z,14.37
2022-09-01T04:06:33.685Z,14.31
2022-09-01T04:09:36.569Z,14.27
2022-09-01T04:12:39.677Z,14.18
2022-09-01T04:15:43.778Z,14.07
2022-09-01T04:18:48.953Z,14.27
2022-09-01T04:21:52.199Z,14.31
2022-09-01T04:24:54.848Z,14.21
2022-09-01T04:27:58.686Z,14.24
2022-09-01T04:31:05.876Z,14.22
2022-09-01T04:34:13.162Z,14.17
2022-09-01T04:37:19.077Z,14.16
2022-09-01T04:40:23.769Z,13.92
2022-09-01T04:43:30.146Z,14.01
2022-09-01T04:46:36.593Z,13.90
2022-09-01T04:49:39.175Z,13.82
2022-09-01T04:52:43.023Z,13.88
2022-09-01T04:55:47.078Z,13.88
2022-09-01T04:58:54.034Z,13.99
2022-09-01T05:02:00.643Z,14.01
2022-09-01T05:05:03.660Z,14.02
2022-09-01T05:08:06.863Z,14.01
2022-09-01T05:11:09.477Z,14.11
2022-09-01T05:14:12.489Z,14.05
2022-09-01T05:17:18.647Z,14.07
2022-09-01T05:20:21.701Z,14.02
2022-09-01T05:23:26.536Z,14.03
2022-09-01T05:26:31.646Z,14.15
2022-09-01T05:29:36.156Z,14.22
2022-09-01T05:32:40.387Z,14.28
2022-09-01T05:35:55.399Z,14.32
2022-09-01T05:38:59.045Z,14.30
2022-09-01T05:42:01.923Z,14.39
2022-09-01T05:45:05.041Z,14.36
2022-09-01T05:48:09.403Z,14.53
2022-09-01T05:51:40.379Z,14.63
2022-09-01T05:54:37.971Z,14.74
2022-09-01T05:57:40.806Z,14.83
2022-09-01T06:00:44.070Z,14.93
2022-09-01T06:03:49.358Z,15.04
2022-09-01T06:07:10.228Z,15.08
2022-09-01T06:10:16.106Z,15.15
2022-09-01T06:13:21.822Z,15.26
2022-09-01T06:16:29.047Z,15.35
2022-09-01T06:19:36.998Z,15.54
2022-09-01T06:22:40.992Z,15.61
2022-09-01T06:25:46.810Z,15.65
2022-09-01T06:28:50.615Z,15.77
2022-09-01T06:31:53.217Z,15.78
2022-09-01T06:35:00.359Z,15.95
2022-09-01T06:38:03.050Z,16.06
2022-09-01T06:41:12.835Z,16.25
2022-09-01T06:44:15.451Z,16.38
2022-09-01T06:47:19.385Z,16.55
2022-09-01T06:53:51.106Z,16.89
2022-09-01T06:56:53.899Z,16.88
2022-09-01T06:59:56.960Z,17.16
2022-09-01T07:02:59.818Z,17.32
2022-09-01T07:06:08.903Z,17.46
2022-09-01T07:09:21.541Z,17.56
2022-09-01T07:12:25.742Z,17.64
2022-09-01T07:18:58.696Z,17.85
2022-09-01T07:22:35.230Z,18.13
2022-09-01T07:25:35.721Z,18.31
2022-09-01T07:28:50.652Z,18.56
2022-09-01T07:35:22.303Z,18.76
2022-09-01T07:45:32.391Z,19.36
2022-09-01T07:48:36.482Z,19.42
2022-09-01T07:51:59.626Z,19.39
2022-09-01T07:55:03.922Z,19.71
2022-09-01T07:58:06.517Z,19.85
2022-09-01T08:01:11.281Z,20.11
2022-09-01T08:04:25.557Z,20.26
2022-09-01T08:07:28.220Z,20.49
2022-09-01T08:10:32.193Z,20.58
2022-09-01T08:13:41.189Z,20.69
2022-09-01T08:16:52.238Z,20.86
2022-09-01T08:19:56.393Z,21.06
2022-09-01T08:22:59.008Z,21.15
2022-09-01T08:26:07.160Z,21.27
2022-09-01T08:29:09.931Z,21.50
2022-09-01T08:32:13.063Z,21.74
2022-09-01T08:35:16.202Z,22.04
2022-09-01T08:38:19.488Z,22.13
2022-09-01T08:41:35.176Z,22.33
2022-09-01T08:44:45.815Z,22.71
2022-09-01T08:48:28.735Z,22.88
2022-09-01T08:51:20.755Z,23.28
2022-09-01T08:54:29.709Z,23.48
2022-09-01T08:57:39.413Z,23.51
2022-09-01T09:00:51.411Z,23.66
2022-09-01T09:04:09.172Z,23.77
2022-09-01T09:07:18.366Z,23.94
2022-09-01T09:10:25.146Z,24.04
2022-09-01T09:13:39.579Z,24.24
2022-09-01T09:16:43.874Z,24.70
2022-09-01T09:19:46.933Z,24.58
2022-09-01T09:22:49.931Z,24.68
2022-09-01T09:25:52.548Z,24.82
2022-09-01T09:28:56.725Z,25.02
2022-09-01T09:32:05.557Z,25.29
2022-09-01T09:35:21.827Z,25.62
2022-09-01T09:38:30.256Z,25.45
2022-09-01T09:41:32.880Z,25.21
2022-09-01T09:44:43.782Z,25.97
2022-09-01T09:47:47.707Z,26.38
2022-09-01T09:50:50.597Z,26.47
2022-09-01T09:53:55.580Z,26.44
2022-09-01T09:57:12.583Z,27.17
2022-09-01T10:00:24.016Z,27.66
2022-09-01T10:03:37.428Z,27.18
2022-09-01T10:06:45.195Z,27.44
2022-09-01T10:09:49.128Z,27.23
2022-09-01T10:12:53.836Z,28.05
2022-09-01T10:15:59.811Z,28.48
2022-09-01T10:19:03.284Z,28.85
2022-09-01T10:22:06.593Z,29.12
2022-09-01T10:25:14.835Z,28.61
2022-09-01T10:28:24.277Z,27.49
2022-09-01T10:31:32.856Z,27.78
2022-09-01T10:34:41.969Z,28.47
2022-09-01T10:37:44.892Z,28.07
2022-09-01T10:41:07.008Z,28.68
2022-09-01T10:44:11.667Z,27.87
2022-09-01T10:47:29.557Z,28.61
2022-09-01T10:50:36.563Z,28.89
2022-09-01T10:53:40.708Z,27.77
2022-09-01T10:56:51.747Z,26.57
2022-09-01T10:59:57.797Z,27.05
2022-09-01T11:03:47.841Z,27.98
2022-09-01T11:07:29.686Z,27.81
2022-09-01T11:10:42.080Z,27.16
2022-09-01T11:13:50.137Z,26.15
2022-09-01T11:17:16.203Z,25.25
2022-09-01T11:20:27.379Z,24.76
2022-09-01T11:23:31.736Z,24.66
2022-09-01T11:26:48.842Z,25.44
2022-09-01T11:29:55.581Z,25.04
2022-09-01T11:33:03.072Z,24.50
2022-09-01T11:36:15.260Z,24.34
2022-09-01T11:39:30.901Z,23.84
2022-09-01T11:42:40.513Z,23.14
2022-09-01T11:46:03.482Z,23.09
2022-09-01T11:49:09.790Z,23.07
2022-09-01T11:52:16.958Z,23.40
2022-09-01T11:55:30.171Z,25.18
2022-09-01T11:58:39.129Z,26.18
2022-09-01T12:01:42.130Z,27.44
2022-09-01T12:04:44.760Z,28.35
2022-09-01T12:07:48.926Z,29.05
2022-09-01T12:10:51.644Z,29.20
2022-09-01T12:14:00.789Z,29.37
2022-09-01T12:17:06.478Z,29.71
2022-09-01T12:20:29.699Z,28.92
2022-09-01T12:23:36.171Z,28.99
2022-09-01T12:26:40.484Z,27.66
2022-09-01T12:29:43.802Z,26.36
2022-09-01T12:32:47.228Z,26.50
2022-09-01T12:35:49.893Z,26.82
2022-09-01T12:38:55.335Z,27.44
2022-09-01T12:42:14.868Z,27.34
2022-09-01T12:45:41.119Z,25.98
2022-09-01T12:48:44.723Z,25.95
2022-09-01T12:51:48.565Z,25.29
2022-09-01T12:54:54.371Z,26.40
2022-09-01T12:57:58.773Z,27.28
2022-09-01T13:01:05.740Z,27.87
2022-09-01T13:04:25.113Z,28.41
2022-09-01T13:07:27.680Z,28.86
2022-09-01T13:10:35.617Z,29.66
2022-09-01T13:13:38.208Z,29.77
2022-09-01T13:16:40.835Z,28.71
2022-09-01T13:19:43.540Z,27.86
2022-09-01T13:22:46.883Z,27.09
2022-09-01T13:25:51.381Z,26.63
2022-09-01T13:28:54.188Z,26.29
2022-09-01T13:35:22.119Z,25.44
2022-09-01T13:38:24.747Z,24.93
2022-09-01T13:41:29.094Z,24.96
2022-09-01T13:44:31.678Z,24.75
2022-09-01T13:47:35.459Z,24.40
2022-09-01T13:51:16.638Z,24.27
2022-09-01T13:54:21.317Z,25.06
2022-09-01T13:57:25.685Z,25.91
2022-09-01T14:00:31.990Z,25.98
2022-09-01T14:03:34.611Z,26.22
2022-09-01T14:06:41.181Z,26.31
2022-09-01T14:09:43.753Z,26.20
2022-09-01T14:12:47.890Z,25.98
2022-09-01T14:15:53.297Z,25.91
2022-09-01T14:18:55.958Z,25.64
2022-09-01T14:21:58.538Z,25.57
2022-09-01T14:25:02.101Z,25.16
2022-09-01T14:28:06.469Z,25.04
2022-09-01T14:31:10.261Z,24.87
2022-09-01T14:34:12.943Z,24.67
2022-09-01T14:37:15.719Z,24.35
2022-09-01T14:40:20.142Z,24.22
2022-09-01T14:43:25.426Z,24.22
2022-09-01T14:46:30.395Z,24.13
2022-09-01T14:49:35.822Z,23.85
2022-09-01T14:52:38.920Z,23.61
2022-09-01T14:55:43.986Z,23.46
2022-09-01T14:58:48.542Z,23.40
2022-09-01T15:01:51.159Z,23.17
2022-09-01T15:04:53.874Z,23.28
2022-09-01T15:07:56.681Z,23.05
2022-09-01T15:11:01.261Z,22.77
2022-09-01T15:14:05.461Z,22.70
2022-09-01T15:17:09.009Z,22.77
2022-09-01T15:20:28.926Z,22.90
2022-09-01T15:23:31.626Z,22.79
2022-09-01T15:26:34.830Z,22.93
2022-09-01T15:29:46.161Z,22.82
2022-09-01T15:32:50.858Z,22.79
2022-09-01T15:35:53.847Z,22.51
2022-09-01T15:38:58.637Z,22.64
2022-09-01T15:42:01.943Z,22.66
2022-09-01T15:45:09.666Z,22.54
2022-09-01T15:48:12.233Z,22.56
2022-09-01T15:51:30.910Z,22.40
2022-09-01T15:54:38.619Z,22.58
2022-09-01T15:57:41.193Z,22.06
2022-09-01T16:00:45.449Z,22.07
2022-09-01T16:03:48.131Z,22.00
2022-09-01T16:06:52.567Z,21.95
2022-09-01T16:09:57.917Z,21.90
2022-09-01T16:13:01.458Z,22.29
2022-09-01T16:16:14.669Z,22.28
2022-09-01T16:19:29.827Z,22.22
2022-09-01T16:22:36.724Z,22.14
2022-09-01T16:25:39.340Z,22.10
2022-09-01T16:28:45.441Z,22.16
2022-09-01T16:31:56.293Z,22.06
2022-09-01T16:34:59.138Z,22.10
2022-09-01T16:38:12.209Z,22.12
2022-09-01T16:41:36.203Z,22.01
2022-09-01T16:44:51.065Z,21.89
2022-09-01T16:48:05.282Z,21.91
2022-09-01T16:51:14.853Z,21.92
2022-09-01T16:54:26.072Z,21.66
2022-09-01T16:57:41.214Z,21.85
2022-09-01T17:00:52.600Z,21.81
2022-09-01T17:04:14.542Z,21.79
2022-09-01T17:07:26.411Z,21.66
2022-09-01T17:10:41.746Z,21.55
2022-09-01T17:13:47.473Z,21.45
2022-09-01T17:16:51.081Z,21.43
2022-09-01T17:19:55.613Z,21.40
2022-09-01T17:23:00.494Z,21.26
2022-09-01T17:26:07.364Z,21.28
2022-09-01T17:29:24.525Z,20.95
2022-09-01T17:32:52.729Z,20.95
2022-09-01T17:36:11.291Z,20.86
2022-09-01T17:39:29.780Z,20.84
2022-09-01T17:42:36.542Z,20.77
2022-09-01T17:45:51.337Z,20.64
2022-09-01T17:48:58.987Z,20.56
2022-09-01T17:52:14.532Z,20.43
2022-09-01T17:55:37.383Z,20.40
2022-09-01T17:58:49.966Z,20.35
2022-09-01T18:02:02.610Z,20.24
2022-09-01T18:05:11.714Z,20.07
2022-09-01T18:08:30.598Z,19.96
2022-09-01T18:11:40.149Z,19.87
2022-09-01T18:14:53.048Z,19.84
2022-09-01T18:18:05.213Z,19.62
2022-09-01T18:21:11.441Z,19.57
2022-09-01T18:24:19.477Z,19.45
2022-09-01T18:27:24.989Z,19.44
2022-09-01T18:30:52.105Z,19.34
2022-09-01T18:34:09.903Z,19.18
2022-09-01T18:37:20.055Z,19.20
2022-09-01T18:40:30.908Z,19.12
2022-09-01T18:43:37.550Z,19.04
2022-09-01T18:46:49.478Z,18.92
2022-09-01T18:50:04.025Z,18.82
2022-09-01T18:53:18.998Z,18.76
2022-09-01T18:56:37.636Z,18.75
2022-09-01T18:59:54.733Z,18.69
2022-09-01T19:03:09.899Z,18.58
2022-09-01T19:06:26.862Z,18.46
2022-09-01T19:09:33.166Z,18.33
2022-09-01T19:12:44.361Z,18.33
2022-09-01T19:15:56.223Z,18.26
2022-09-01T19:19:08.250Z,18.14
2022-09-01T19:22:17.288Z,18.17
2022-09-01T19:25:36.516Z,18.11
2022-09-01T19:28:44.939Z,18.05
2022-09-01T19:31:50.919Z,18.05
2022-09-01T19:34:57.563Z,17.98
2022-09-01T19:38:00.181Z,17.97
2022-09-01T19:41:10.722Z,17.91
2022-09-01T19:44:27.981Z,17.72
2022-09-01T19:47:38.191Z,17.72
2022-09-01T19:50:47.721Z,17.76
2022-09-01T19:53:58.069Z,17.64
2022-09-01T19:57:05.793Z,17.67
2022-09-01T20:00:14.250Z,17.63
2022-09-01T20:03:23.079Z,17.49
2022-09-01T20:06:33.414Z,17.55
2022-09-01T20:09:42.034Z,17.47
2022-09-01T20:12:51.356Z,17.40
2022-09-01T20:16:04.151Z,17.35
2022-09-01T20:19:11.918Z,17.28
2022-09-01T20:22:23.716Z,17.23
2022-09-01T20:25:38.339Z,17.16
2022-09-01T20:28:48.619Z,17.10
2022-09-01T20:31:56.411Z,17.09
2022-09-01T20:35:04.621Z,17.12
2022-09-01T20:38:35.397Z,17.03
2022-09-01T20:41:45.379Z,16.97
2022-09-01T20:44:53.600Z,16.89
2022-09-01T20:47:59.151Z,16.93
2022-09-01T20:51:08.583Z,16.91
2022-09-01T20:54:25.363Z,16.88
2022-09-01T20:57:36.734Z,16.91
2022-09-01T21:00:49.728Z,16.85
2022-09-01T21:04:04.124Z,16.82
2022-09-01T21:07:14.714Z,16.81
2022-09-01T21:10:25.217Z,16.72
2022-09-01T21:13:45.766Z,16.59
2022-09-01T21:16:58.485Z,16.65
2022-09-01T21:20:11.879Z,16.66
2022-09-01T21:23:16.104Z,16.55
2022-09-01T21:26:18.832Z,16.60
2022-09-01T21:29:33.051Z,16.61
2022-09-01T21:32:36.254Z,16.51
2022-09-01T21:35:40.241Z,16.57
2022-09-01T21:38:43.378Z,16.45
2022-09-01T21:41:46.729Z,16.51
2022-09-01T21:44:49.713Z,16.47
2022-09-01T21:47:53.282Z,16.43
2022-09-01T21:50:57.257Z,16.50
2022-09-01T21:53:59.854Z,16.47
2022-09-01T21:57:02.453Z,16.40
2022-09-01T22:00:07.244Z,16.46
2022-09-01T22:03:11.233Z,16.36
2022-09-01T22:06:15.252Z,16.28
2022-09-01T22:09:21.181Z,16.24
2022-09-01T22:12:24.465Z,16.22
2022-09-01T22:15:27.561Z,16.24
2022-09-01T22:18:30.312Z,16.08
2022-09-01T22:21:34.595Z,16.20
2022-09-01T22:24:37.218Z,16.11
2022-09-01T22:27:40.005Z,16.05
2022-09-01T22:30:46.877Z,15.93
2022-09-01T22:33:49.937Z,15.96
2022-09-01T22:36:53.913Z,15.99
2022-09-01T22:39:56.580Z,15.93
2022-09-01T22:42:59.181Z,15.91
2022-09-01T22:46:01.864Z,15.94
2022-09-01T22:49:04.756Z,15.89
2022-09-01T22:52:08.743Z,15.86
2022-09-01T22:55:11.718Z,15.83
2022-09-01T22:58:15.145Z,15.89
2022-09-01T23:01:21.500Z,15.80
2022-09-01T23:04:24.901Z,15.79
2022-09-01T23:07:28.978Z,15.75
2022-09-01T23:10:32.615Z,15.76
2022-09-01T23:13:36.380Z,15.78
2022-09-01T23:16:39.152Z,15.79
2022-09-01T23:19:41.832Z,15.82
2022-09-01T23:22:46.578Z,15.76
2022-09-01T23:25:52.970Z,15.69
2022-09-01T23:28:56.600Z,15.71
2022-09-01T23:31:59.298Z,15.69
2022-09-01T23:35:02.235Z,15.78
2022-09-01T23:38:06.159Z,15.72
2022-09-01T23:41:13.825Z,15.73
2022-09-01T23:44:16.724Z,15.71
2022-09-01T23:47:19.583Z,15.66
2022-09-01T23:50:22.183Z,15.61
2022-09-01T23:53:29.010Z,15.67
2022-09-01T23:56:31.871Z,15.58
2022-09-01T23:59:34.523Z,15.55
